createdAt,value
2022-09-23T00:00:10.333Z,1013.71
2022-09-23T00:01:10.432Z,1013.71
2022-09-23T00:02:10.343Z,1013.71
2022-09-23T00:03:10.302Z,1013.69
2022-09-23T00:04:10.297Z,1013.70
2022-09-23T00:05:10.261Z,1013.68
2022-09-23T00:06:10.312Z,1013.68
2022-09-23T00:07:10.239Z,1013.66
2022-09-23T00:08:10.249Z,1013.66
2022-09-23T00:09:10.226Z,1013.64
2022-09-23T00:10:10.212Z,1013.64
2022-09-23T00:11:10.200Z,1013.65
2022-09-23T00:12:10.222Z,1013.64
2022-09-23T00:13:10.187Z,1013.64
2022-09-23T00:14:10.217Z,1013.65
2022-09-23T00:15:10.196Z,1013.65
2022-09-23T00:16:10.173Z,1013.65
2022-09-23T00:17:10.173Z,1013.64
2022-09-23T00:18:10.144Z,1013.63
2022-09-23T00:19:10.144Z,1013.63
2022-09-23T00:20:10.134Z,1013.62
2022-09-23T00:21:10.121Z,1013.63
2022-09-23T00:22:10.104Z,1013.64
2022-09-23T00:23:10.065Z,1013.63
2022-09-23T00:24:10.103Z,1013.63
2022-09-23T00:25:10.049Z,1013.62
2022-09-23T00:26:10.052Z,1013.61
2022-09-23T00:27:10.041Z,1013.60
2022-09-23T00:28:10.053Z,1013.58
2022-09-23T00:29:10.014Z,1013.58
2022-09-23T00:30:10.034Z,1013.56
2022-09-23T00:31:10.038Z,1013.57
2022-09-23T00:32:09.998Z,1013.57
2022-09-23T00:33:09.961Z,1013.57
2022-09-23T00:34:09.983Z,1013.55
2022-09-23T00:35:09.947Z,1013.55
2022-09-23T00:36:09.957Z,1013.54
2022-09-23T00:37:10.078Z,1013.54
2022-09-23T00:38:09.939Z,1013.53
2022-09-23T00:39:09.914Z,1013.53
2022-09-23T00:40:09.937Z,1013.53
2022-09-23T00:41:09.878Z,1013.53
2022-09-23T00:42:09.895Z,1013.54
2022-09-23T00:43:09.895Z,1013.53
2022-09-23T00:44:09.858Z,1013.54
2022-09-23T00:45:09.846Z,1013.53
2022-09-23T00:46:09.938Z,1013.52
2022-09-23T00:47:09.827Z,1013.52
2022-09-23T00:48:09.844Z,1013.51
2022-09-23T00:49:09.807Z,1013.51
2022-09-23T00:50:09.798Z,1013.49
2022-09-23T00:51:09.803Z,1013.49
2022-09-23T00:52:09.801Z,1013.49
2022-09-23T00:53:09.791Z,1013.47
2022-09-23T00:54:09.762Z,1013.46
2022-09-23T00:55:09.737Z,1013.45
2022-09-23T00:56:09.735Z,1013.44
2022-09-23T00:57:09.726Z,1013.44
2022-09-23T00:58:09.724Z,1013.43
2022-09-23T00:59:09.739Z,1013.41
2022-09-23T01:00:09.728Z,1013.41
2022-09-23T01:01:09.765Z,1013.40
2022-09-23T01:02:09.726Z,1013.40
2022-09-23T01:03:09.679Z,1013.41
2022-09-23T01:04:09.651Z,1013.40
2022-09-23T01:05:09.659Z,1013.40
2022-09-23T01:06:09.698Z,1013.41
2022-09-23T01:07:09.621Z,1013.39
2022-09-23T01:08:09.643Z,1013.39
2022-09-23T01:09:09.620Z,1013.38
2022-09-23T01:10:09.609Z,1013.38
2022-09-23T01:11:09.593Z,1013.37
2022-09-23T01:12:09.568Z,1013.35
2022-09-23T01:13:09.562Z,1013.34
2022-09-23T01:14:09.558Z,1013.33
2022-09-23T01:15:09.549Z,1013.31
2022-09-23T01:16:09.528Z,1013.29
2022-09-23T01:17:09.516Z,1013.28
2022-09-23T01:18:09.541Z,1013.26
2022-09-23T01:19:09.508Z,1013.25
2022-09-23T01:20:09.505Z,1013.26
2022-09-23T01:21:09.488Z,1013.24
2022-09-23T01:22:09.482Z,1013.25
2022-09-23T01:23:09.458Z,1013.24
2022-09-23T01:24:09.436Z,1013.22
2022-09-23T01:25:09.452Z,1013.20
2022-09-23T01:26:09.439Z,1013.20
2022-09-23T01:27:09.402Z,1013.18
2022-09-23T01:28:09.414Z,1013.18
2022-09-23T01:29:09.488Z,1013.17
2022-09-23T01:30:09.397Z,1013.18
2022-09-23T01:31:09.446Z,1013.15
2022-09-23T01:32:09.375Z,1013.16
2022-09-23T01:33:09.419Z,1013.16
2022-09-23T01:34:09.338Z,1013.15
2022-09-23T01:35:09.325Z,1013.16
2022-09-23T01:36:09.339Z,1013.16
2022-09-23T01:37:09.304Z,1013.17
2022-09-23T01:38:09.301Z,1013.17
2022-09-23T01:39:09.431Z,1013.16
2022-09-23T01:40:09.327Z,1013.15
2022-09-23T01:41:09.288Z,1013.16
2022-09-23T01:42:09.266Z,1013.13
2022-09-23T01:43:09.242Z,1013.12
2022-09-23T01:44:09.251Z,1013.11
2022-09-23T01:45:09.227Z,1013.11
2022-09-23T01:46:09.226Z,1013.11
2022-09-23T01:47:09.230Z,1013.09
2022-09-23T01:48:09.284Z,1013.10
2022-09-23T01:49:09.195Z,1013.08
2022-09-23T01:50:09.220Z,1013.08
2022-09-23T01:51:09.159Z,1013.08
2022-09-23T01:52:09.173Z,1013.08
2022-09-23T01:53:09.140Z,1013.06
2022-09-23T01:54:09.176Z,1013.07
2022-09-23T01:55:09.114Z,1013.07
2022-09-23T01:56:09.129Z,1013.07
2022-09-23T01:57:09.120Z,1013.07
2022-09-23T01:58:09.112Z,1013.06
2022-09-23T01:59:09.079Z,1013.07
2022-09-23T02:00:09.084Z,1013.06
2022-09-23T02:01:09.138Z,1013.06
2022-09-23T02:02:09.128Z,1013.04
2022-09-23T02:03:09.074Z,1013.03
2022-09-23T02:04:09.012Z,1013.04
2022-09-23T02:05:09.034Z,1013.03
2022-09-23T02:06:09.035Z,1013.02
2022-09-23T02:07:09.024Z,1013.02
2022-09-23T02:08:09.028Z,1013.02
2022-09-23T02:09:09.051Z,1013.01
2022-09-23T02:10:08.959Z,1013.00
2022-09-23T02:11:08.963Z,1012.99
2022-09-23T02:12:08.961Z,1012.97
2022-09-23T02:13:08.986Z,1012.98
2022-09-23T02:14:08.920Z,1012.96
2022-09-23T02:15:08.935Z,1012.96
2022-09-23T02:16:08.971Z,1012.94
2022-09-23T02:17:08.889Z,1012.93
2022-09-23T02:18:08.887Z,1012.92
2022-09-23T02:19:08.909Z,1012.92
2022-09-23T02:20:08.901Z,1012.92
2022-09-23T02:21:08.877Z,1012.92
2022-09-23T02:22:08.863Z,1012.91
2022-09-23T02:23:08.848Z,1012.90
2022-09-23T02:24:08.842Z,1012.90
2022-09-23T02:25:08.833Z,1012.89
2022-09-23T02:26:08.803Z,1012.87
2022-09-23T02:27:08.809Z,1012.86
2022-09-23T02:28:08.811Z,1012.86
2022-09-23T02:29:08.779Z,1012.84
2022-09-23T02:30:08.765Z,1012.84
2022-09-23T02:31:08.762Z,1012.82
2022-09-23T02:32:08.765Z,1012.81
2022-09-23T02:33:08.754Z,1012.81
2022-09-23T02:34:08.788Z,1012.79
2022-09-23T02:35:08.729Z,1012.78
2022-09-23T02:36:08.715Z,1012.77
2022-09-23T02:37:08.694Z,1012.74
2022-09-23T02:38:08.701Z,1012.73
2022-09-23T02:39:08.701Z,1012.71
2022-09-23T02:40:08.695Z,1012.70
2022-09-23T02:41:08.650Z,1012.70
2022-09-23T02:42:08.667Z,1012.71
2022-09-23T02:43:08.651Z,1012.70
2022-09-23T02:44:08.686Z,1012.70
2022-09-23T02:45:08.666Z,1012.66
2022-09-23T02:46:08.680Z,1012.66
2022-09-23T02:47:08.599Z,1012.66
2022-09-23T02:48:08.587Z,1012.65
2022-09-23T02:49:08.581Z,1012.66
2022-09-23T02:50:08.575Z,1012.66
2022-09-23T02:51:08.583Z,1012.64
2022-09-23T02:52:08.522Z,1012.64
2022-09-23T02:53:08.544Z,1012.63
2022-09-23T02:54:08.515Z,1012.63
2022-09-23T02:55:08.522Z,1012.62
2022-09-23T02:56:08.519Z,1012.61
2022-09-23T02:57:08.482Z,1012.60
2022-09-23T02:58:08.481Z,1012.58
2022-09-23T02:59:08.595Z,1012.57
2022-09-23T03:00:08.455Z,1012.57
2022-09-23T03:01:08.500Z,1012.55
2022-09-23T03:02:08.488Z,1012.55
2022-09-23T03:03:08.436Z,1012.55
2022-09-23T03:04:08.427Z,1012.55
2022-09-23T03:05:08.450Z,1012.55
2022-09-23T03:06:08.379Z,1012.54
2022-09-23T03:07:08.379Z,1012.53
2022-09-23T03:08:08.392Z,1012.51
2022-09-23T03:09:08.368Z,1012.52
2022-09-23T03:10:08.355Z,1012.49
2022-09-23T03:11:08.347Z,1012.47
2022-09-23T03:12:08.355Z,1012.46
2022-09-23T03:13:08.337Z,1012.45
2022-09-23T03:14:08.318Z,1012.44
2022-09-23T03:15:08.318Z,1012.43
2022-09-23T03:16:08.379Z,1012.43
2022-09-23T03:17:08.268Z,1012.42
2022-09-23T03:18:08.272Z,1012.42
2022-09-23T03:19:08.259Z,1012.42
2022-09-23T03:20:08.250Z,1012.43
2022-09-23T03:21:08.249Z,1012.44
2022-09-23T03:22:08.235Z,1012.44
2022-09-23T03:23:08.216Z,1012.45
2022-09-23T03:24:08.209Z,1012.44
2022-09-23T03:25:08.197Z,1012.43
2022-09-23T03:26:08.186Z,1012.43
2022-09-23T03:27:08.178Z,1012.42
2022-09-23T03:28:08.162Z,1012.43
2022-09-23T03:29:08.259Z,1012.43
2022-09-23T03:30:08.159Z,1012.41
2022-09-23T03:31:08.128Z,1012.41
2022-09-23T03:32:08.243Z,1012.41
2022-09-23T03:33:08.128Z,1012.40
2022-09-23T03:34:08.092Z,1012.40
2022-09-23T03:35:08.129Z,1012.40
2022-09-23T03:36:08.086Z,1012.40
2022-09-23T03:37:08.074Z,1012.41
2022-09-23T03:38:08.057Z,1012.41
2022-09-23T03:39:08.045Z,1012.42
2022-09-23T03:40:08.055Z,1012.42
2022-09-23T03:41:08.037Z,1012.42
2022-09-23T03:42:08.030Z,1012.42
2022-09-23T03:43:07.999Z,1012.41
2022-09-23T03:44:07.997Z,1012.40
2022-09-23T03:45:07.996Z,1012.39
2022-09-23T03:46:08.073Z,1012.38
2022-09-23T03:47:07.978Z,1012.37
2022-09-23T03:48:08.000Z,1012.35
2022-09-23T03:49:07.933Z,1012.34
2022-09-23T03:50:07.947Z,1012.32
2022-09-23T03:51:07.951Z,1012.31
2022-09-23T03:52:07.901Z,1012.30
2022-09-23T03:53:07.934Z,1012.29
2022-09-23T03:54:07.951Z,1012.27
2022-09-23T03:55:07.899Z,1012.26
2022-09-23T03:56:07.889Z,1012.25
2022-09-23T03:57:07.875Z,1012.24
2022-09-23T03:58:07.858Z,1012.24
2022-09-23T03:59:07.876Z,1012.23
2022-09-23T04:00:07.822Z,1012.23
2022-09-23T04:01:07.881Z,1012.22
2022-09-23T04:02:07.986Z,1012.21
2022-09-23T04:03:11.535Z,1012.20
2022-09-23T04:04:07.859Z,1012.19
2022-09-23T04:05:07.791Z,1012.17
2022-09-23T04:06:07.763Z,1012.16
2022-09-23T04:07:07.768Z,1012.16
2022-09-23T04:08:07.731Z,1012.16
2022-09-23T04:09:07.764Z,1012.15
2022-09-23T04:10:07.725Z,1012.15
2022-09-23T04:11:07.723Z,1012.16
2022-09-23T04:12:07.691Z,1012.16
2022-09-23T04:13:07.711Z,1012.16
2022-09-23T04:14:07.689Z,1012.16
2022-09-23T04:15:07.672Z,1012.15
2022-09-23T04:16:07.741Z,1012.14
2022-09-23T04:17:07.642Z,1012.13
2022-09-23T04:18:07.656Z,1012.12
2022-09-23T04:19:11.450Z,1012.11
2022-09-23T04:20:07.622Z,1012.10
2022-09-23T04:21:07.603Z,1012.10
2022-09-23T04:22:07.596Z,1012.10
2022-09-23T04:23:07.593Z,1012.10
2022-09-23T04:24:07.600Z,1012.09
2022-09-23T04:25:07.603Z,1012.08
2022-09-23T04:26:07.565Z,1012.06
2022-09-23T04:27:07.561Z,1012.04
2022-09-23T04:28:07.535Z,1012.02
2022-09-23T04:29:07.599Z,1012.01
2022-09-23T04:30:07.521Z,1012.00
2022-09-23T04:31:07.515Z,1011.99
2022-09-23T04:32:07.483Z,1011.99
2022-09-23T04:33:07.489Z,1011.98
2022-09-23T04:34:07.489Z,1011.97
2022-09-23T04:35:07.493Z,1011.96
2022-09-23T04:36:07.447Z,1011.95
2022-09-23T04:37:07.443Z,1011.95
2022-09-23T04:38:07.435Z,1011.95
2022-09-23T04:39:07.606Z,1011.95
2022-09-23T04:40:07.450Z,1011.95
2022-09-23T04:41:07.415Z,1011.94
2022-09-23T04:42:07.396Z,1011.92
2022-09-23T04:43:11.668Z,1011.90
2022-09-23T04:44:07.314Z,1011.88
2022-09-23T04:45:07.378Z,1011.86
2022-09-23T04:46:07.317Z,1011.84
2022-09-23T04:47:07.417Z,1011.83
2022-09-23T04:48:07.268Z,1011.83
2022-09-23T04:49:07.430Z,1011.83
2022-09-23T04:50:07.248Z,1011.83
2022-09-23T04:51:07.278Z,1011.82
2022-09-23T04:52:07.230Z,1011.82
2022-09-23T04:53:07.224Z,1011.82
2022-09-23T04:54:07.230Z,1011.82
2022-09-23T04:55:11.026Z,1011.81
2022-09-23T04:56:07.221Z,1011.79
2022-09-23T04:57:07.192Z,1011.78
2022-09-23T04:58:07.186Z,1011.77
2022-09-23T04:59:07.369Z,1011.76
2022-09-23T05:00:07.156Z,1011.75
2022-09-23T05:01:07.178Z,1011.74
2022-09-23T05:02:07.194Z,1011.74
2022-09-23T05:03:07.125Z,1011.72
2022-09-23T05:04:07.127Z,1011.73
2022-09-23T05:05:07.099Z,1011.73
2022-09-23T05:06:07.113Z,1011.73
2022-09-23T05:07:07.087Z,1011.73
2022-09-23T05:08:07.079Z,1011.73
2022-09-23T05:09:07.278Z,1011.74
2022-09-23T05:10:07.037Z,1011.75
2022-09-23T05:11:07.038Z,1011.76
2022-09-23T05:12:07.054Z,1011.77
2022-09-23T05:13:07.029Z,1011.77
2022-09-23T05:14:07.004Z,1011.79
2022-09-23T05:15:06.996Z,1011.80
2022-09-23T05:16:07.054Z,1011.81
2022-09-23T05:17:07.010Z,1011.81
2022-09-23T05:18:06.956Z,1011.81
2022-09-23T05:19:07.122Z,1011.81
2022-09-23T05:20:06.950Z,1011.82
2022-09-23T05:21:06.942Z,1011.83
2022-09-23T05:22:06.928Z,1011.85
2022-09-23T05:23:06.949Z,1011.86
2022-09-23T05:24:06.894Z,1011.86
2022-09-23T05:25:06.898Z,1011.86
2022-09-23T05:26:06.880Z,1011.87
2022-09-23T05:27:06.885Z,1011.87
2022-09-23T05:28:06.873Z,1011.88
2022-09-23T05:29:07.035Z,1011.89
2022-09-23T05:30:06.828Z,1011.88
2022-09-23T05:31:06.902Z,1011.88
2022-09-23T05:32:06.818Z,1011.89
2022-09-23T05:33:06.819Z,1011.89
2022-09-23T05:34:06.805Z,1011.89
2022-09-23T05:35:06.797Z,1011.89
2022-09-23T05:36:06.774Z,1011.89
2022-09-23T05:37:06.778Z,1011.90
2022-09-23T05:38:06.749Z,1011.89
2022-09-23T05:39:06.916Z,1011.89
2022-09-23T05:40:06.837Z,1011.88
2022-09-23T05:41:06.730Z,1011.89
2022-09-23T05:42:06.736Z,1011.90
2022-09-23T05:43:06.712Z,1011.90
2022-09-23T05:44:06.688Z,1011.90
2022-09-23T05:45:06.712Z,1011.90
2022-09-23T05:46:08.422Z,1011.90
2022-09-23T05:47:06.724Z,1011.90
2022-09-23T05:48:06.660Z,1011.90
2022-09-23T05:49:06.649Z,1011.90
2022-09-23T05:50:06.635Z,1011.90
2022-09-23T05:51:06.637Z,1011.90
2022-09-23T05:52:06.619Z,1011.89
2022-09-23T05:53:06.630Z,1011.89
2022-09-23T05:54:06.736Z,1011.89
2022-09-23T05:55:06.582Z,1011.90
2022-09-23T05:56:06.610Z,1011.90
2022-09-23T05:57:06.562Z,1011.90
2022-09-23T05:58:06.550Z,1011.90
2022-09-23T05:59:06.714Z,1011.90
2022-09-23T06:00:06.813Z,1011.90
2022-09-23T06:01:06.521Z,1011.90
2022-09-23T06:02:06.695Z,1011.90
2022-09-23T06:03:06.581Z,1011.89
2022-09-23T06:04:06.706Z,1011.90
2022-09-23T06:05:06.481Z,1011.89
2022-09-23T06:06:06.487Z,1011.88
2022-09-23T06:07:06.476Z,1011.88
2022-09-23T06:08:06.469Z,1011.88
2022-09-23T06:09:06.687Z,1011.88
2022-09-23T06:10:06.443Z,1011.89
2022-09-23T06:11:06.424Z,1011.90
2022-09-23T06:12:06.436Z,1011.89
2022-09-23T06:13:06.413Z,1011.90
2022-09-23T06:14:06.486Z,1011.89
2022-09-23T06:15:06.372Z,1011.89
2022-09-23T06:16:06.409Z,1011.90
2022-09-23T06:17:06.347Z,1011.90
2022-09-23T06:18:06.371Z,1011.90
2022-09-23T06:19:06.977Z,1011.91
2022-09-23T06:20:06.317Z,1011.91
2022-09-23T06:21:06.313Z,1011.91
2022-09-23T06:22:06.306Z,1011.90
2022-09-23T06:23:09.816Z,1011.89
2022-09-23T06:24:06.489Z,1011.88
2022-09-23T06:25:06.255Z,1011.88
2022-09-23T06:26:06.258Z,1011.88
2022-09-23T06:27:06.258Z,1011.88
2022-09-23T06:28:06.256Z,1011.89
2022-09-23T06:29:06.264Z,1011.89
2022-09-23T06:30:06.209Z,1011.90
2022-09-23T06:31:10.817Z,1011.89
2022-09-23T06:32:06.201Z,1011.88
2022-09-23T06:33:06.203Z,1011.88
2022-09-23T06:34:11.520Z,1011.87
2022-09-23T06:35:07.268Z,1011.86
2022-09-23T06:36:06.160Z,1011.85
2022-09-23T06:37:18.308Z,1011.86
2022-09-23T06:38:06.137Z,1011.86
2022-09-23T06:39:06.106Z,1011.87
2022-09-23T06:40:06.185Z,1011.87
2022-09-23T06:41:06.095Z,1011.87
2022-09-23T06:42:06.098Z,1011.87
2022-09-23T06:43:06.094Z,1011.87
2022-09-23T06:44:06.182Z,1011.86
2022-09-23T06:45:06.050Z,1011.87
2022-09-23T06:46:06.160Z,1011.87
2022-09-23T06:47:06.036Z,1011.87
2022-09-23T06:48:06.022Z,1011.88
2022-09-23T06:49:06.001Z,1011.88
2022-09-23T06:50:06.007Z,1011.87
2022-09-23T06:51:06.015Z,1011.85
2022-09-23T06:52:05.986Z,1011.84
2022-09-23T06:53:05.954Z,1011.84
2022-09-23T06:54:06.037Z,1011.84
2022-09-23T06:55:05.954Z,1011.86
2022-09-23T06:56:05.961Z,1011.87
2022-09-23T06:57:05.952Z,1011.88
2022-09-23T06:58:05.922Z,1011.88
2022-09-23T06:59:05.926Z,1011.89
2022-09-23T07:00:05.893Z,1011.88
2022-09-23T07:01:05.880Z,1011.89
2022-09-23T07:02:05.977Z,1011.89
2022-09-23T07:03:05.976Z,1011.90
2022-09-23T07:04:06.063Z,1011.90
2022-09-23T07:05:05.853Z,1011.90
2022-09-23T07:06:05.847Z,1011.89
2022-09-23T07:07:05.828Z,1011.87
2022-09-23T07:08:05.841Z,1011.85
2022-09-23T07:09:05.839Z,1011.84
2022-09-23T07:10:05.799Z,1011.85
2022-09-23T07:11:05.799Z,1011.85
2022-09-23T07:12:05.789Z,1011.86
2022-09-23T07:13:05.779Z,1011.87
2022-09-23T07:14:05.753Z,1011.88
2022-09-23T07:15:05.757Z,1011.91
2022-09-23T07:16:05.790Z,1011.92
2022-09-23T07:17:05.735Z,1011.92
2022-09-23T07:18:05.721Z,1011.91
2022-09-23T07:19:05.907Z,1011.89
2022-09-23T07:20:05.968Z,1011.89
2022-09-23T07:21:05.699Z,1011.90
2022-09-23T07:22:05.685Z,1011.91
2022-09-23T07:23:05.678Z,1011.92
2022-09-23T07:24:05.676Z,1011.91
2022-09-23T07:25:05.655Z,1011.91
2022-09-23T07:26:05.672Z,1011.90
2022-09-23T07:27:05.618Z,1011.90
2022-09-23T07:28:05.627Z,1011.91
2022-09-23T07:29:05.616Z,1011.92
2022-09-23T07:30:05.961Z,1011.93
2022-09-23T07:31:05.641Z,1011.94
2022-09-23T07:32:12.937Z,1011.93
2022-09-23T07:33:17.260Z,1011.93
2022-09-23T07:34:05.748Z,1011.93
2022-09-23T07:35:05.547Z,1011.93
2022-09-23T07:36:05.561Z,1011.93
2022-09-23T07:37:05.533Z,1011.92
2022-09-23T07:38:05.511Z,1011.92
2022-09-23T07:39:05.492Z,1011.92
2022-09-23T07:40:05.541Z,1011.92
2022-09-23T07:41:05.481Z,1011.92
2022-09-23T07:42:05.467Z,1011.91
2022-09-23T07:43:05.463Z,1011.92
2022-09-23T07:44:05.460Z,1011.93
2022-09-23T07:45:05.454Z,1011.93
2022-09-23T07:46:05.492Z,1011.94
2022-09-23T07:47:05.423Z,1011.95
2022-09-23T07:48:05.417Z,1011.95
2022-09-23T07:49:05.505Z,1011.95
2022-09-23T07:50:05.396Z,1011.94
2022-09-23T07:51:05.375Z,1011.95
2022-09-23T07:52:05.409Z,1011.95
2022-09-23T07:53:05.371Z,1011.95
2022-09-23T07:54:05.353Z,1011.95
2022-09-23T07:55:05.329Z,1011.96
2022-09-23T07:56:05.342Z,1011.96
2022-09-23T07:57:05.327Z,1011.96
2022-09-23T07:58:05.334Z,1011.96
2022-09-23T07:59:06.527Z,1011.96
2022-09-23T08:00:05.290Z,1011.97
2022-09-23T08:01:05.313Z,1011.98
2022-09-23T08:02:05.288Z,1011.97
2022-09-23T08:03:05.377Z,1011.97
2022-09-23T08:04:05.238Z,1011.99
2022-09-23T08:05:05.239Z,1011.99
2022-09-23T08:06:05.222Z,1012.01
2022-09-23T08:07:05.226Z,1012.01
2022-09-23T08:08:05.224Z,1012.01
2022-09-23T08:09:05.477Z,1012.01
2022-09-23T08:10:05.197Z,1012.01
2022-09-23T08:11:05.172Z,1012.02
2022-09-23T08:12:05.166Z,1012.03
2022-09-23T08:13:05.154Z,1012.04
2022-09-23T08:14:05.182Z,1012.05
2022-09-23T08:15:05.134Z,1012.06
2022-09-23T08:16:05.181Z,1012.07
2022-09-23T08:17:05.123Z,1012.08
2022-09-23T08:18:05.113Z,1012.08
2022-09-23T08:20:05.090Z,1012.07
2022-09-23T08:21:05.065Z,1012.08
2022-09-23T08:22:05.068Z,1012.07
2022-09-23T08:23:05.062Z,1012.05
2022-09-23T08:24:05.056Z,1012.05
2022-09-23T08:25:07.683Z,1012.03
2022-09-23T08:26:05.029Z,1012.02
2022-09-23T08:27:05.025Z,1012.02
2022-09-23T08:28:05.025Z,1012.01
2022-09-23T08:29:04.985Z,1012.02
2022-09-23T08:30:04.989Z,1012.01
2022-09-23T08:31:05.009Z,1012.00
2022-09-23T08:32:04.953Z,1012.00
2022-09-23T08:33:04.947Z,1011.99
2022-09-23T08:34:05.154Z,1011.99
2022-09-23T08:35:04.926Z,1011.98
2022-09-23T08:36:04.903Z,1011.97
2022-09-23T08:37:04.925Z,1011.96
2022-09-23T08:38:04.922Z,1011.95
2022-09-23T08:39:04.894Z,1011.94
2022-09-23T08:40:04.922Z,1011.93
2022-09-23T08:41:04.869Z,1011.93
2022-09-23T08:42:04.867Z,1011.93
2022-09-23T08:43:04.830Z,1011.93
2022-09-23T08:44:04.856Z,1011.93
2022-09-23T08:45:04.836Z,1011.92
2022-09-23T08:46:04.862Z,1011.93
2022-09-23T08:47:04.798Z,1011.94
2022-09-23T08:48:06.061Z,1011.95
2022-09-23T08:49:04.786Z,1011.96
2022-09-23T08:50:04.793Z,1011.96
2022-09-23T08:51:04.753Z,1011.96
2022-09-23T08:52:04.782Z,1011.96
2022-09-23T08:53:04.747Z,1011.96
2022-09-23T08:54:04.754Z,1011.95
2022-09-23T08:55:04.765Z,1011.96
2022-09-23T08:56:04.701Z,1011.96
2022-09-23T08:57:04.698Z,1011.96
2022-09-23T08:59:04.687Z,1011.97
2022-09-23T09:00:04.667Z,1011.97
2022-09-23T09:01:04.723Z,1011.96
2022-09-23T09:02:04.657Z,1011.94
2022-09-23T09:03:04.641Z,1011.92
2022-09-23T09:04:07.388Z,1011.91
2022-09-23T09:05:04.590Z,1011.90
2022-09-23T09:06:04.604Z,1011.89
2022-09-23T09:07:31.888Z,1011.87
2022-09-23T09:08:04.619Z,1011.86
2022-09-23T09:09:04.572Z,1011.85
2022-09-23T09:10:04.591Z,1011.84
2022-09-23T09:11:04.536Z,1011.83
2022-09-23T09:12:04.550Z,1011.83
2022-09-23T09:13:04.547Z,1011.84
2022-09-23T09:14:04.532Z,1011.85
2022-09-23T09:15:04.498Z,1011.85
2022-09-23T09:16:04.578Z,1011.84
2022-09-23T09:17:04.532Z,1011.82
2022-09-23T09:18:04.554Z,1011.80
2022-09-23T09:19:04.464Z,1011.79
2022-09-23T09:20:04.455Z,1011.77
2022-09-23T09:21:04.443Z,1011.77
2022-09-23T09:22:04.457Z,1011.77
2022-09-23T09:23:04.420Z,1011.77
2022-09-23T09:24:04.423Z,1011.77
2022-09-23T09:25:04.391Z,1011.77
2022-09-23T09:26:04.400Z,1011.76
2022-09-23T09:27:04.404Z,1011.75
2022-09-23T09:28:04.384Z,1011.74
2022-09-23T09:29:17.083Z,1011.73
2022-09-23T09:30:04.368Z,1011.74
2022-09-23T09:31:04.369Z,1011.76
2022-09-23T09:32:04.345Z,1011.76
2022-09-23T09:33:04.337Z,1011.76
2022-09-23T09:34:04.305Z,1011.75
2022-09-23T09:35:04.285Z,1011.74
2022-09-23T09:36:04.301Z,1011.74
2022-09-23T09:37:07.050Z,1011.74
2022-09-23T09:38:04.284Z,1011.74
2022-09-23T09:39:04.262Z,1011.75
2022-09-23T09:40:04.301Z,1011.76
2022-09-23T09:41:04.236Z,1011.75
2022-09-23T09:42:04.222Z,1011.75
2022-09-23T09:43:04.213Z,1011.75
2022-09-23T09:44:04.214Z,1011.75
2022-09-23T09:45:04.190Z,1011.74
2022-09-23T09:46:04.197Z,1011.74
2022-09-23T09:47:04.319Z,1011.74
2022-09-23T09:48:04.178Z,1011.74
2022-09-23T09:49:04.168Z,1011.73
2022-09-23T09:50:04.141Z,1011.71
2022-09-23T09:51:04.138Z,1011.71
2022-09-23T09:52:04.131Z,1011.70
2022-09-23T09:53:04.062Z,1011.69
2022-09-23T09:54:04.081Z,1011.68
2022-09-23T09:55:04.024Z,1011.67
2022-09-23T09:56:05.520Z,1011.66
2022-09-23T09:57:04.057Z,1011.65
2022-09-23T09:58:04.022Z,1011.65
2022-09-23T09:59:04.008Z,1011.64
2022-09-23T10:00:03.969Z,1011.62
2022-09-23T10:01:04.032Z,1011.62
2022-09-23T10:02:04.006Z,1011.62
2022-09-23T10:03:03.962Z,1011.62
2022-09-23T10:04:04.006Z,1011.61
2022-09-23T10:05:03.929Z,1011.62
2022-09-23T10:06:03.974Z,1011.61
2022-09-23T10:07:03.937Z,1011.60
2022-09-23T10:08:03.907Z,1011.60
2022-09-23T10:09:03.907Z,1011.60
2022-09-23T10:10:21.858Z,1011.59
2022-09-23T10:11:03.889Z,1011.59
2022-09-23T10:12:03.878Z,1011.59
2022-09-23T10:13:03.862Z,1011.58
2022-09-23T10:14:03.871Z,1011.57
2022-09-23T10:15:03.838Z,1011.56
2022-09-23T10:16:03.919Z,1011.56
2022-09-23T10:17:03.976Z,1011.54
2022-09-23T10:18:03.802Z,1011.53
2022-09-23T10:19:03.788Z,1011.53
2022-09-23T10:20:03.804Z,1011.53
2022-09-23T10:21:03.780Z,1011.52
2022-09-23T10:22:03.771Z,1011.53
2022-09-23T10:23:03.766Z,1011.54
2022-09-23T10:24:03.753Z,1011.54
2022-09-23T10:25:03.754Z,1011.53
2022-09-23T10:26:03.741Z,1011.53
2022-09-23T10:27:03.736Z,1011.52
2022-09-23T10:28:07.941Z,1011.53
2022-09-23T10:29:03.737Z,1011.53
2022-09-23T10:30:03.685Z,1011.53
2022-09-23T10:31:03.762Z,1011.51
2022-09-23T10:32:03.665Z,1011.52
2022-09-23T10:33:03.669Z,1011.50
2022-09-23T10:34:03.649Z,1011.48
2022-09-23T10:35:03.639Z,1011.48
2022-09-23T10:36:03.636Z,1011.47
2022-09-23T10:37:03.610Z,1011.47
2022-09-23T10:38:03.598Z,1011.48
2022-09-23T10:39:03.602Z,1011.48
2022-09-23T10:40:03.773Z,1011.48
2022-09-23T10:41:03.715Z,1011.48
2022-09-23T10:42:03.559Z,1011.48
2022-09-23T10:43:03.570Z,1011.47
2022-09-23T10:44:03.607Z,1011.46
2022-09-23T10:45:03.556Z,1011.46
2022-09-23T10:46:03.592Z,1011.45
2022-09-23T10:47:03.529Z,1011.45
2022-09-23T10:48:03.527Z,1011.44
2022-09-23T10:49:03.507Z,1011.44
2022-09-23T10:50:03.495Z,1011.44
2022-09-23T10:51:03.479Z,1011.43
2022-09-23T10:52:03.472Z,1011.43
2022-09-23T10:53:03.490Z,1011.41
2022-09-23T10:54:03.581Z,1011.40
2022-09-23T10:55:03.460Z,1011.40
2022-09-23T10:56:03.455Z,1011.39
2022-09-23T10:57:03.435Z,1011.37
2022-09-23T10:58:03.427Z,1011.35
2022-09-23T10:59:03.415Z,1011.35
2022-09-23T11:00:03.393Z,1011.32
2022-09-23T11:01:03.468Z,1011.31
2022-09-23T11:02:03.401Z,1011.31
2022-09-23T11:03:03.394Z,1011.28
2022-09-23T11:04:03.602Z,1011.25
2022-09-23T11:05:03.363Z,1011.24
2022-09-23T11:06:03.346Z,1011.22
2022-09-23T11:07:03.336Z,1011.21
2022-09-23T11:08:04.013Z,1011.21
2022-09-23T11:09:03.311Z,1011.21
2022-09-23T11:10:03.290Z,1011.19
2022-09-23T11:11:03.285Z,1011.18
2022-09-23T11:12:03.283Z,1011.19
2022-09-23T11:13:03.257Z,1011.18
2022-09-23T11:14:03.245Z,1011.15
2022-09-23T11:15:03.245Z,1011.15
2022-09-23T11:16:03.269Z,1011.13
2022-09-23T11:17:03.304Z,1011.13
2022-09-23T11:18:03.210Z,1011.12
2022-09-23T11:19:03.227Z,1011.12
2022-09-23T11:20:03.195Z,1011.11
2022-09-23T11:21:03.168Z,1011.10
2022-09-23T11:22:03.199Z,1011.09
2022-09-23T11:23:03.171Z,1011.06
2022-09-23T11:24:03.241Z,1011.05
2022-09-23T11:25:03.135Z,1011.05
2022-09-23T11:26:03.140Z,1011.03
2022-09-23T11:27:03.110Z,1011.02
2022-09-23T11:28:03.101Z,1011.01
2022-09-23T11:29:03.123Z,1011.01
2022-09-23T11:30:03.094Z,1011.00
2022-09-23T11:31:03.171Z,1011.01
2022-09-23T11:32:03.085Z,1011.01
2022-09-23T11:34:03.094Z,1010.99
2022-09-23T11:35:03.037Z,1010.97
2022-09-23T11:36:03.018Z,1010.95
2022-09-23T11:37:03.020Z,1010.93
2022-09-23T11:38:03.000Z,1010.92
2022-09-23T11:39:03.008Z,1010.93
2022-09-23T11:40:03.005Z,1010.93
2022-09-23T11:41:03.133Z,1010.93
2022-09-23T11:42:02.941Z,1010.93
2022-09-23T11:43:02.945Z,1010.93
2022-09-23T11:44:03.013Z,1010.92
2022-09-23T11:45:02.947Z,1010.92
2022-09-23T11:46:03.051Z,1010.92
2022-09-23T11:47:02.921Z,1010.91
2022-09-23T11:48:02.905Z,1010.91
2022-09-23T11:49:02.883Z,1010.92
2022-09-23T11:50:02.864Z,1010.92
2022-09-23T11:51:02.876Z,1010.91
2022-09-23T11:52:02.881Z,1010.90
2022-09-23T11:53:02.837Z,1010.92
2022-09-23T11:54:02.893Z,1010.93
2022-09-23T11:55:07.425Z,1010.92
2022-09-23T11:56:02.818Z,1010.93
2022-09-23T11:57:02.819Z,1010.92
2022-09-23T11:58:02.827Z,1010.92
2022-09-23T11:59:02.829Z,1010.91
2022-09-23T12:00:02.771Z,1010.91
2022-09-23T12:01:02.769Z,1010.91
2022-09-23T12:02:14.044Z,1010.92
2022-09-23T12:03:06.078Z,1010.92
2022-09-23T12:04:14.903Z,1010.92
2022-09-23T12:05:03.045Z,1010.91
2022-09-23T12:06:02.748Z,1010.90
2022-09-23T12:07:02.701Z,1010.89
2022-09-23T12:08:02.698Z,1010.87